createdAt,value
2023-02-15T00:02:17.449Z,36.23
2023-02-15T00:04:49.408Z,36.28
2023-02-15T00:07:21.355Z,36.30
2023-02-15T00:09:53.309Z,36.31
2023-02-15T00:12:25.191Z,36.38
2023-02-15T00:14:57.191Z,36.40
2023-02-15T00:17:30.246Z,36.46
2023-02-15T00:20:02.231Z,36.49
2023-02-15T00:22:34.048Z,36.54
2023-02-15T00:25:06.340Z,36.58
2023-02-15T00:27:38.184Z,36.59
2023-02-15T00:30:10.539Z,36.62
2023-02-15T00:32:42.530Z,36.69
2023-02-15T00:35:14.537Z,36.70
2023-02-15T00:37:46.387Z,36.75
2023-02-15T00:40:18.314Z,36.80
2023-02-15T00:42:50.267Z,36.81
2023-02-15T00:45:22.605Z,36.88
2023-02-15T00:47:54.508Z,36.89
2023-02-15T00:50:26.403Z,36.90
2023-02-15T00:52:58.322Z,36.94
2023-02-15T00:55:31.631Z,36.97
2023-02-15T00:58:03.815Z,36.99
2023-02-15T01:00:36.364Z,37.03
2023-02-15T01:03:08.305Z,37.07
2023-02-15T01:05:41.871Z,37.10
2023-02-15T01:08:13.698Z,37.13
2023-02-15T01:10:48.714Z,37.13
2023-02-15T01:13:20.792Z,37.19
2023-02-15T01:15:57.100Z,37.20
2023-02-15T01:18:29.264Z,37.24
2023-02-15T01:21:01.296Z,37.27
2023-02-15T01:23:34.144Z,37.29
2023-02-15T01:26:06.131Z,37.31
2023-02-15T01:28:38.322Z,37.33
2023-02-15T01:31:18.388Z,37.37
2023-02-15T01:33:50.630Z,37.39
2023-02-15T01:36:22.575Z,37.37
2023-02-15T01:38:54.570Z,37.33
2023-02-15T01:41:28.300Z,37.36
2023-02-15T01:44:02.125Z,37.41
2023-02-15T01:46:44.515Z,37.36
2023-02-15T01:49:19.020Z,37.49
2023-02-15T01:51:54.029Z,37.51
2023-02-15T01:54:32.888Z,37.55
2023-02-15T01:57:16.771Z,37.55
2023-02-15T01:59:51.693Z,37.61
2023-02-15T02:02:26.229Z,37.64
2023-02-15T02:05:04.187Z,37.61
2023-02-15T02:07:43.163Z,37.74
2023-02-15T02:10:18.053Z,37.69
2023-02-15T02:12:53.533Z,37.69
2023-02-15T02:15:40.463Z,37.70
2023-02-15T02:18:31.721Z,37.75
2023-02-15T02:21:21.744Z,37.78
2023-02-15T02:24:10.396Z,37.83
2023-02-15T02:26:47.555Z,37.85
2023-02-15T02:29:41.568Z,37.81
2023-02-15T02:32:46.616Z,37.85
2023-02-15T02:35:23.231Z,37.91
2023-02-15T02:38:09.214Z,37.85
2023-02-15T02:40:53.767Z,37.87
2023-02-15T02:43:41.863Z,37.94
2023-02-15T02:46:23.309Z,37.94
2023-02-15T02:48:55.893Z,37.94
2023-02-15T02:51:28.746Z,37.97
2023-02-15T02:54:03.665Z,37.98
2023-02-15T02:56:39.069Z,37.96
2023-02-15T02:59:19.305Z,38.02
2023-02-15T03:01:55.844Z,38.03
2023-02-15T03:04:33.889Z,38.05
2023-02-15T03:07:13.025Z,38.05
2023-02-15T03:09:49.631Z,38.13
2023-02-15T03:12:27.680Z,38.09
2023-02-15T03:15:10.004Z,38.09
2023-02-15T03:17:45.228Z,38.13
2023-02-15T03:20:28.008Z,38.12
2023-02-15T03:23:03.885Z,38.15
2023-02-15T03:25:42.132Z,38.14
2023-02-15T03:28:19.536Z,38.19
2023-02-15T03:30:56.874Z,38.18
2023-02-15T03:33:29.276Z,38.17
2023-02-15T03:36:25.895Z,38.20
2023-02-15T03:39:09.451Z,38.26
2023-02-15T03:41:49.541Z,38.27
2023-02-15T03:44:30.457Z,38.29
2023-02-15T03:47:13.025Z,38.25
2023-02-15T03:50:31.614Z,38.31
2023-02-15T03:53:06.264Z,38.39
2023-02-15T03:55:38.197Z,38.29
2023-02-15T03:58:28.800Z,38.30
2023-02-15T04:01:49.703Z,38.37
2023-02-15T04:04:25.589Z,38.43
2023-02-15T04:06:57.642Z,38.34
2023-02-15T04:09:48.490Z,38.35
2023-02-15T04:12:20.534Z,38.42
2023-02-15T04:15:11.260Z,38.35
2023-02-15T04:17:43.202Z,38.41
2023-02-15T04:20:33.916Z,38.40
2023-02-15T04:23:26.453Z,38.43
2023-02-15T04:25:58.324Z,38.48
2023-02-15T04:28:30.222Z,38.44
2023-02-15T04:31:02.171Z,38.44
2023-02-15T04:33:34.138Z,38.45
2023-02-15T04:36:06.861Z,38.48
2023-02-15T04:38:38.737Z,38.50
2023-02-15T04:41:12.602Z,38.50
2023-02-15T04:43:44.499Z,38.49
2023-02-15T04:46:16.426Z,38.55
2023-02-15T04:48:48.423Z,38.56
2023-02-15T04:51:20.351Z,38.55
2023-02-15T04:53:55.795Z,38.59
2023-02-15T04:56:27.736Z,38.61
2023-02-15T04:58:59.689Z,38.63
2023-02-15T05:01:32.198Z,38.60
2023-02-15T05:04:04.444Z,38.65
2023-02-15T05:06:36.419Z,38.68
2023-02-15T05:09:08.472Z,38.76
2023-02-15T05:11:40.385Z,38.81
2023-02-15T05:14:12.519Z,38.87
2023-02-15T05:16:44.511Z,38.76
2023-02-15T05:19:16.860Z,38.66
2023-02-15T05:21:48.852Z,38.54
2023-02-15T05:24:39.544Z,38.40
2023-02-15T05:27:31.130Z,38.31
2023-02-15T05:30:03.370Z,38.03
2023-02-15T05:32:35.418Z,37.76
2023-02-15T05:35:07.971Z,37.53
2023-02-15T05:37:39.981Z,37.22
2023-02-15T05:40:12.328Z,36.94
2023-02-15T05:42:44.282Z,36.63
2023-02-15T05:45:16.803Z,36.33
2023-02-15T05:47:48.822Z,36.01
2023-02-15T05:50:20.741Z,35.69
2023-02-15T05:52:53.040Z,35.39
2023-02-15T05:55:24.948Z,35.08
2023-02-15T05:57:56.825Z,34.87
2023-02-15T06:00:28.850Z,34.61
2023-02-15T06:03:01.238Z,34.33
2023-02-15T06:05:33.141Z,34.17
2023-02-15T06:08:06.067Z,33.97
2023-02-15T06:10:38.121Z,33.76
2023-02-15T06:13:10.083Z,33.62
2023-02-15T06:15:42.646Z,33.43
2023-02-15T06:18:14.618Z,33.31
2023-02-15T06:20:47.816Z,33.15
2023-02-15T06:23:19.742Z,32.98
2023-02-15T06:25:51.698Z,32.87
2023-02-15T06:28:23.590Z,32.80
2023-02-15T06:30:55.599Z,32.84
2023-02-15T06:33:31.688Z,32.67
2023-02-15T06:36:05.133Z,32.65
2023-02-15T06:38:37.043Z,32.60
2023-02-15T06:41:09.023Z,32.65
2023-02-15T06:43:41.170Z,32.55
2023-02-15T06:46:13.268Z,32.54
2023-02-15T06:48:45.271Z,32.54
2023-02-15T06:51:17.214Z,32.47
2023-02-15T06:53:49.142Z,32.41
2023-02-15T06:56:21.044Z,32.31
2023-02-15T06:58:53.865Z,32.19
2023-02-15T07:01:27.262Z,32.10
2023-02-15T07:04:03.644Z,31.95
2023-02-15T07:06:35.544Z,31.90
2023-02-15T07:09:07.525Z,31.77
2023-02-15T07:11:58.671Z,31.69
2023-02-15T07:14:30.634Z,31.54
2023-02-15T07:17:02.610Z,31.52
2023-02-15T07:19:34.539Z,31.40
2023-02-15T07:22:06.413Z,31.28
2023-02-15T07:24:38.439Z,31.22
2023-02-15T07:27:11.851Z,31.16
2023-02-15T07:29:44.885Z,31.09
2023-02-15T07:32:16.756Z,31.01
2023-02-15T07:34:48.700Z,30.96
2023-02-15T07:37:20.628Z,30.88
2023-02-15T07:39:52.566Z,30.80
2023-02-15T07:42:24.553Z,30.77
2023-02-15T07:44:57.010Z,30.76
2023-02-15T07:47:28.931Z,30.67
2023-02-15T07:50:00.822Z,30.64
2023-02-15T07:52:32.804Z,30.57
2023-02-15T07:55:05.103Z,30.52
2023-02-15T07:57:36.993Z,30.49
2023-02-15T08:00:09.558Z,30.43
2023-02-15T08:03:12.096Z,30.30
2023-02-15T08:05:45.873Z,30.24
2023-02-15T08:08:32.981Z,30.23
2023-02-15T08:11:27.127Z,30.15
2023-02-15T08:14:10.360Z,30.09
2023-02-15T08:16:46.149Z,30.08
2023-02-15T08:19:29.215Z,30.06
2023-02-15T08:22:05.315Z,29.96
2023-02-15T08:24:38.277Z,29.93
2023-02-15T08:27:10.980Z,29.95
2023-02-15T08:29:43.413Z,29.88
2023-02-15T08:32:15.472Z,29.96
2023-02-15T08:34:47.472Z,29.89
2023-02-15T08:37:19.556Z,29.90
2023-02-15T08:39:51.496Z,29.86
2023-02-15T08:42:26.546Z,29.78
2023-02-15T08:44:58.479Z,29.74
2023-02-15T08:47:30.458Z,29.73
2023-02-15T08:50:02.811Z,29.70
2023-02-15T08:52:34.669Z,29.71
2023-02-15T08:55:06.956Z,29.64
2023-02-15T08:57:39.783Z,29.61
2023-02-15T09:00:13.090Z,29.56
2023-02-15T09:02:44.835Z,29.51
2023-02-15T09:05:16.861Z,29.48
2023-02-15T09:07:48.725Z,29.57
2023-02-15T09:10:21.467Z,29.54
2023-02-15T09:12:53.594Z,29.50
2023-02-15T09:15:25.664Z,29.45
2023-02-15T09:18:00.253Z,29.47
2023-02-15T09:20:32.187Z,29.44
2023-02-15T09:23:04.370Z,29.43
2023-02-15T09:25:36.240Z,29.37
2023-02-15T09:28:09.651Z,29.37
2023-02-15T09:30:43.089Z,29.32
2023-02-15T09:33:15.147Z,29.28
2023-02-15T09:35:46.999Z,29.28
2023-02-15T09:38:19.541Z,29.27
2023-02-15T09:41:12.554Z,29.20
2023-02-15T09:43:59.909Z,29.15
2023-02-15T09:46:44.136Z,29.09
2023-02-15T09:49:37.829Z,29.09
2023-02-15T09:52:24.768Z,29.05
2023-02-15T09:55:22.432Z,29.02
2023-02-15T09:58:00.301Z,28.99
2023-02-15T10:00:42.794Z,29.00
2023-02-15T10:03:23.703Z,28.96
2023-02-15T10:06:07.597Z,28.93
2023-02-15T10:09:17.300Z,28.92
2023-02-15T10:12:17.181Z,28.88
2023-02-15T10:15:06.067Z,28.88
2023-02-15T10:17:37.963Z,28.86
2023-02-15T10:20:25.099Z,28.87
2023-02-15T10:23:07.079Z,28.83
2023-02-15T10:25:57.825Z,28.81
2023-02-15T10:28:48.015Z,28.79
2023-02-15T10:31:31.952Z,28.76
2023-02-15T10:34:18.487Z,28.74
2023-02-15T10:37:37.189Z,28.74
2023-02-15T10:40:21.658Z,28.66
2023-02-15T10:43:21.273Z,28.69
2023-02-15T10:45:59.312Z,28.66
2023-02-15T10:49:19.686Z,28.67
2023-02-15T10:52:10.622Z,28.62
2023-02-15T10:55:08.242Z,28.64
2023-02-15T10:57:45.517Z,28.61
2023-02-15T11:00:33.150Z,28.59
2023-02-15T11:04:02.534Z,28.53
2023-02-15T11:06:36.182Z,28.53
2023-02-15T11:09:14.250Z,28.57
2023-02-15T11:11:49.484Z,28.52
2023-02-15T11:14:33.621Z,28.52
2023-02-15T11:17:13.197Z,28.44
2023-02-15T11:20:12.866Z,28.45
2023-02-15T11:22:48.602Z,28.40
2023-02-15T11:25:33.395Z,28.43
2023-02-15T11:28:11.323Z,28.37
2023-02-15T11:30:47.246Z,28.39
2023-02-15T11:33:23.538Z,28.36
2023-02-15T11:36:09.655Z,28.36
2023-02-15T11:38:44.771Z,28.35
2023-02-15T11:41:21.144Z,28.35
2023-02-15T11:44:06.624Z,28.36
2023-02-15T11:46:38.699Z,28.33
2023-02-15T11:49:22.937Z,28.31
2023-02-15T11:51:55.603Z,28.28
2023-02-15T11:54:31.032Z,28.29
2023-02-15T11:57:29.553Z,28.25
2023-02-15T12:00:16.146Z,28.22
2023-02-15T12:02:53.300Z,28.22
2023-02-15T12:05:26.436Z,28.22
2023-02-15T12:08:05.162Z,28.21
2023-02-15T12:11:16.613Z,28.21
2023-02-15T12:14:09.534Z,28.18
2023-02-15T12:16:45.361Z,28.23
2023-02-15T12:19:26.388Z,28.22
2023-02-15T12:21:59.516Z,28.20
2023-02-15T12:24:45.677Z,28.22
2023-02-15T12:27:22.431Z,28.18
2023-02-15T12:30:16.887Z,28.16
2023-02-15T12:33:10.695Z,28.21
2023-02-15T12:35:43.422Z,28.21
2023-02-15T12:38:15.237Z,28.17
2023-02-15T12:41:05.931Z,28.13
2023-02-15T12:43:39.384Z,28.14
2023-02-15T12:46:29.453Z,28.17
2023-02-15T12:49:10.579Z,28.17
2023-02-15T12:52:03.538Z,28.14
2023-02-15T12:54:41.258Z,28.13
2023-02-15T12:57:21.536Z,28.14
2023-02-15T12:59:59.086Z,28.13
2023-02-15T13:02:53.534Z,28.14
2023-02-15T13:05:28.753Z,28.13
2023-02-15T13:08:29.076Z,28.14
2023-02-15T13:11:08.410Z,28.13
2023-02-15T13:13:53.271Z,28.15
2023-02-15T13:16:47.109Z,28.17
2023-02-15T13:19:31.125Z,28.19
2023-02-15T13:22:06.841Z,28.15
2023-02-15T13:24:42.451Z,28.15
2023-02-15T13:27:20.972Z,28.15
2023-02-15T13:29:59.691Z,28.15
2023-02-15T13:32:37.571Z,28.13
2023-02-15T13:35:17.706Z,28.13
2023-02-15T13:38:01.961Z,28.14
2023-02-15T13:40:59.847Z,28.16
2023-02-15T13:44:24.806Z,28.13
2023-02-15T13:47:26.112Z,28.16
2023-02-15T13:50:13.150Z,28.18
2023-02-15T13:53:08.350Z,28.19
2023-02-15T13:55:46.031Z,28.19
2023-02-15T13:58:30.001Z,28.17
2023-02-15T14:01:25.729Z,28.17
2023-02-15T14:04:14.977Z,28.17
2023-02-15T14:06:58.880Z,28.08
2023-02-15T14:09:33.868Z,28.12
2023-02-15T14:12:08.736Z,28.13
2023-02-15T14:14:58.940Z,28.13
2023-02-15T14:17:47.455Z,28.11
2023-02-15T14:20:51.301Z,28.10
2023-02-15T14:23:31.171Z,28.15
2023-02-15T14:26:13.192Z,28.26
2023-02-15T14:29:02.534Z,28.30
2023-02-15T14:31:39.824Z,28.34
2023-02-15T14:34:25.884Z,28.40
2023-02-15T14:36:58.515Z,28.42
2023-02-15T14:39:56.865Z,28.49
2023-02-15T14:42:42.366Z,28.53
2023-02-15T14:45:34.368Z,28.68
2023-02-15T14:48:16.279Z,28.88
2023-02-15T14:50:49.358Z,29.11
2023-02-15T14:53:33.358Z,29.30
2023-02-15T14:56:11.236Z,29.47
2023-02-15T14:58:55.201Z,29.55
2023-02-15T15:01:33.214Z,29.62
2023-02-15T15:04:13.085Z,29.65
2023-02-15T15:06:45.237Z,29.68
2023-02-15T15:09:20.210Z,29.67
2023-02-15T15:11:53.661Z,29.67
2023-02-15T15:14:34.789Z,29.69
2023-02-15T15:17:10.975Z,29.66
2023-02-15T15:19:51.965Z,29.71
2023-02-15T15:22:26.178Z,29.76
2023-02-15T15:25:03.381Z,29.80
2023-02-15T15:27:48.805Z,29.78
2023-02-15T15:30:23.603Z,29.77
2023-02-15T15:32:55.567Z,29.77
2023-02-15T15:35:38.467Z,29.77
2023-02-15T15:38:44.654Z,29.78
2023-02-15T15:41:43.950Z,29.77
2023-02-15T15:44:57.120Z,29.73
2023-02-15T15:48:06.542Z,29.73
2023-02-15T15:50:43.533Z,29.76
2023-02-15T15:53:21.450Z,29.79
2023-02-15T15:56:06.920Z,29.81
2023-02-15T15:58:42.589Z,29.88
2023-02-15T16:01:15.833Z,29.88
2023-02-15T16:03:53.080Z,29.88
2023-02-15T16:06:36.948Z,29.91
2023-02-15T16:09:12.962Z,29.91
2023-02-15T16:11:46.854Z,29.90
2023-02-15T16:14:38.508Z,29.95
2023-02-15T16:17:20.840Z,30.00
2023-02-15T16:19:54.544Z,30.01
2023-02-15T16:22:30.498Z,30.07
2023-02-15T16:25:02.750Z,30.13
2023-02-15T16:27:43.241Z,30.16
2023-02-15T16:30:43.851Z,30.23
2023-02-15T16:33:17.926Z,30.27
2023-02-15T16:35:56.059Z,30.24
2023-02-15T16:38:43.131Z,30.30
2023-02-15T16:41:36.164Z,30.37
2023-02-15T16:44:16.589Z,30.43
2023-02-15T16:46:55.208Z,30.45
2023-02-15T16:49:28.654Z,30.55
2023-02-15T16:52:06.531Z,30.59
2023-02-15T16:54:38.547Z,30.63
2023-02-15T16:57:22.201Z,30.68
2023-02-15T16:59:57.404Z,30.72
2023-02-15T17:02:54.518Z,30.77
2023-02-15T17:05:23.899Z,30.81
2023-02-15T17:08:14.456Z,30.86
2023-02-15T17:11:03.218Z,30.94
2023-02-15T17:13:35.581Z,31.04
2023-02-15T17:16:31.483Z,31.13
2023-02-15T17:19:09.977Z,31.27
2023-02-15T17:21:47.418Z,31.32
2023-02-15T17:24:26.289Z,31.37
2023-02-15T17:27:01.979Z,31.44
2023-02-15T17:29:39.450Z,31.48
2023-02-15T17:32:23.785Z,31.55
2023-02-15T17:35:05.272Z,31.53
2023-02-15T17:37:37.583Z,31.56
2023-02-15T17:40:34.348Z,31.61
2023-02-15T17:43:06.279Z,31.65
2023-02-15T17:45:58.934Z,31.66
2023-02-15T17:48:35.282Z,31.72
2023-02-15T17:51:12.013Z,31.68
2023-02-15T17:54:03.358Z,31.71
2023-02-15T17:56:36.974Z,31.77
2023-02-15T17:59:10.489Z,31.79
2023-02-15T18:02:06.520Z,31.85
2023-02-15T18:04:57.049Z,31.87
2023-02-15T18:07:47.929Z,31.87
2023-02-15T18:10:38.608Z,31.89
2023-02-15T18:13:10.600Z,31.93
2023-02-15T18:15:42.678Z,31.92
2023-02-15T18:18:14.828Z,31.94
2023-02-15T18:20:46.860Z,31.91
2023-02-15T18:23:18.915Z,31.86
2023-02-15T18:25:50.915Z,31.86
2023-02-15T18:28:22.842Z,31.82
2023-02-15T18:30:54.902Z,31.77
2023-02-15T18:33:34.633Z,31.74
2023-02-15T18:36:08.737Z,31.69
2023-02-15T18:38:40.708Z,31.65
2023-02-15T18:41:18.102Z,31.63
2023-02-15T18:43:50.717Z,31.61
2023-02-15T18:46:22.930Z,31.58
2023-02-15T18:48:54.867Z,31.58
2023-02-15T18:51:26.840Z,31.51
2023-02-15T18:53:59.547Z,31.50
2023-02-15T18:56:31.522Z,31.48
2023-02-15T18:59:03.484Z,31.48
2023-02-15T19:01:35.460Z,31.46
2023-02-15T19:04:07.392Z,31.45
2023-02-15T19:06:44.785Z,31.43
2023-02-15T19:09:20.337Z,31.40
2023-02-15T19:11:54.461Z,31.39
2023-02-15T19:14:31.017Z,31.40
2023-02-15T19:17:02.931Z,31.40
2023-02-15T19:19:34.800Z,31.37
2023-02-15T19:22:06.726Z,31.38
2023-02-15T19:24:40.787Z,31.38
2023-02-15T19:27:23.990Z,31.36
2023-02-15T19:29:57.305Z,31.35
2023-02-15T19:32:31.480Z,31.33
2023-02-15T19:35:03.424Z,31.33
2023-02-15T19:37:38.215Z,31.35
2023-02-15T19:40:28.978Z,31.32
2023-02-15T19:43:01.206Z,31.32
2023-02-15T19:45:33.154Z,31.31
2023-02-15T19:48:06.656Z,31.30
2023-02-15T19:50:38.648Z,31.32
2023-02-15T19:53:25.402Z,31.30
2023-02-15T19:55:57.711Z,31.30
2023-02-15T19:58:30.050Z,31.31
2023-02-15T20:01:03.403Z,31.29
2023-02-15T20:03:35.921Z,31.30
2023-02-15T20:06:16.605Z,31.29
2023-02-15T20:08:48.577Z,31.29
2023-02-15T20:11:22.096Z,31.27
2023-02-15T20:13:54.064Z,31.25
2023-02-15T20:16:27.548Z,31.25
2023-02-15T20:18:59.469Z,31.26
2023-02-15T20:21:31.380Z,31.27
2023-02-15T20:24:04.384Z,31.25
2023-02-15T20:26:37.619Z,31.28
2023-02-15T20:29:18.640Z,31.24
2023-02-15T20:31:52.814Z,31.27
2023-02-15T20:34:26.174Z,31.24
2023-02-15T20:36:58.089Z,31.22
2023-02-15T20:39:30.067Z,31.20
2023-02-15T20:42:01.957Z,31.20
2023-02-15T20:44:35.425Z,31.20
2023-02-15T20:47:07.535Z,31.18
2023-02-15T20:49:39.501Z,31.19
2023-02-15T20:52:20.964Z,31.15
2023-02-15T20:54:53.209Z,31.17
2023-02-15T20:57:25.112Z,31.14
2023-02-15T20:59:57.058Z,31.16
2023-02-15T21:02:29.036Z,31.10
2023-02-15T21:05:02.081Z,31.11
2023-02-15T21:07:34.030Z,31.10
2023-02-15T21:10:07.709Z,31.10
2023-02-15T21:12:39.713Z,31.10
2023-02-15T21:15:33.544Z,31.09
2023-02-15T21:18:29.435Z,31.12
2023-02-15T21:21:05.102Z,31.17
2023-02-15T21:23:41.101Z,31.19
2023-02-15T21:26:22.000Z,31.20
2023-02-15T21:28:55.364Z,31.21
2023-02-15T21:31:28.967Z,31.26
2023-02-15T21:34:01.955Z,31.30
2023-02-15T21:36:33.765Z,31.35
2023-02-15T21:39:06.216Z,31.41
2023-02-15T21:41:56.763Z,31.42
2023-02-15T21:44:47.879Z,31.46
2023-02-15T21:47:46.919Z,31.48
2023-02-15T21:50:42.541Z,31.46
2023-02-15T21:53:24.775Z,31.42
2023-02-15T21:55:58.680Z,31.42
2023-02-15T21:58:32.636Z,31.37
2023-02-15T22:01:05.111Z,31.39
2023-02-15T22:03:38.087Z,31.37
2023-02-15T22:06:12.260Z,31.35
2023-02-15T22:08:44.469Z,31.32
2023-02-15T22:11:19.933Z,31.30
2023-02-15T22:13:51.903Z,31.28
2023-02-15T22:16:23.887Z,31.29
2023-02-15T22:18:55.821Z,31.25
2023-02-15T22:21:29.937Z,31.25
2023-02-15T22:24:01.954Z,31.23
2023-02-15T22:26:33.877Z,31.21
2023-02-15T22:29:06.143Z,31.24
2023-02-15T22:31:38.117Z,31.20
2023-02-15T22:34:36.975Z,31.20
2023-02-15T22:37:09.007Z,31.20
2023-02-15T22:39:41.133Z,31.19
2023-02-15T22:42:25.492Z,31.20
2023-02-15T22:44:58.315Z,31.16
2023-02-15T22:47:32.390Z,31.14
2023-02-15T22:50:06.435Z,31.16
2023-02-15T22:52:38.357Z,31.13
2023-02-15T22:55:13.826Z,31.10
2023-02-15T22:57:49.300Z,31.10
2023-02-15T23:00:26.626Z,31.11
2023-02-15T23:02:58.647Z,31.09
2023-02-15T23:05:31.590Z,31.09
2023-02-15T23:08:03.651Z,31.09
2023-02-15T23:10:35.651Z,31.09
2023-02-15T23:13:25.616Z,31.09
2023-02-15T23:16:02.938Z,31.07
2023-02-15T23:18:39.215Z,31.05
2023-02-15T23:21:30.254Z,31.04
2023-02-15T23:24:29.401Z,31.01
2023-02-15T23:27:19.993Z,31.01
2023-02-15T23:29:52.060Z,31.04
2023-02-15T23:32:24.159Z,31.01
2023-02-15T23:34:56.148Z,31.01
2023-02-15T23:37:28.370Z,30.99
2023-02-15T23:40:18.961Z,30.99
2023-02-15T23:42:50.972Z,31.00
2023-02-15T23:45:23.924Z,30.98
2023-02-15T23:48:15.019Z,31.02
2023-02-15T23:50:47.156Z,30.99
2023-02-15T23:53:19.196Z,30.99
2023-02-15T23:55:51.216Z,31.00
2023-02-15T23:58:26.862Z,30.98
